Terminal Aerodrome Forecast
Issued by NWS

Home | Current Version | Previous Version | Text Only | Print | Product List | Glossary On
Versions: 1 2 3 4 5 6 7 8 9 10 11 12 13 14 15 16 17 18 19 20 21
148
FTUS43 KDVN 151748
TAFBRL
TAF
KBRL 151748Z 1518/1618 12005KT P6SM BKN100
      TEMPO 1520/1524 6SM -FZRA BR BKN060
     FM160300 10005KT 3SM -FZRA BR OVC009
     FM161300 10008KT 3SM RA BR OVC007=

USA.gov is the U.S. government's official web portal to all federal, state and local government web resources and services.